createdAt,value
2023-10-02T00:00:43.864Z,13.93
2023-10-02T00:03:11.050Z,13.83
2023-10-02T00:05:51.650Z,11.73
2023-10-02T00:08:33.746Z,12.00
2023-10-02T00:11:37.032Z,12.80
2023-10-02T00:14:23.865Z,11.40
2023-10-02T00:17:02.369Z,16.20
2023-10-02T00:19:39.516Z,12.70
2023-10-02T00:22:32.157Z,12.20
2023-10-02T00:25:01.418Z,12.17
2023-10-02T00:27:32.218Z,11.23
2023-10-02T00:30:00.468Z,10.73
2023-10-02T00:32:30.678Z,11.87
2023-10-02T00:35:01.791Z,10.80
2023-10-02T00:37:53.300Z,14.70
2023-10-02T00:40:24.595Z,12.47
2023-10-02T00:42:56.396Z,13.53
2023-10-02T00:45:25.396Z,12.50
2023-10-02T00:47:54.499Z,12.27
2023-10-02T00:50:23.480Z,11.67
2023-10-02T00:53:03.218Z,12.47
2023-10-02T00:55:35.306Z,14.13
2023-10-02T00:58:04.513Z,10.53
2023-10-02T01:00:37.523Z,12.63
2023-10-02T01:03:16.130Z,11.83
2023-10-02T01:05:49.440Z,12.90
2023-10-02T01:08:26.860Z,13.27
2023-10-02T01:11:08.695Z,11.60
2023-10-02T01:13:36.947Z,10.67
2023-10-02T01:16:08.569Z,11.93
2023-10-02T01:18:40.829Z,11.73
2023-10-02T01:21:12.800Z,12.50
2023-10-02T01:24:06.801Z,13.30
2023-10-02T01:26:41.743Z,13.60
2023-10-02T01:29:12.518Z,13.13
2023-10-02T01:31:45.488Z,12.60
2023-10-02T01:34:32.318Z,12.00
2023-10-02T01:37:22.697Z,12.13
2023-10-02T01:39:50.719Z,11.33
2023-10-02T01:42:17.474Z,13.07
2023-10-02T01:44:56.459Z,11.77
2023-10-02T01:47:23.750Z,13.53
2023-10-02T01:50:01.434Z,11.03
2023-10-02T01:52:41.865Z,11.47
2023-10-02T01:55:15.471Z,11.23
2023-10-02T01:57:43.012Z,11.83
2023-10-02T02:00:14.782Z,12.47
2023-10-02T02:02:43.332Z,11.30
2023-10-02T02:05:15.815Z,10.47
2023-10-02T02:07:42.699Z,12.60
2023-10-02T02:10:10.765Z,14.03
2023-10-02T02:12:46.143Z,13.80
2023-10-02T02:15:13.060Z,11.90
2023-10-02T02:17:40.205Z,12.57
2023-10-02T02:20:33.727Z,15.90
2023-10-02T02:23:08.510Z,15.70
2023-10-02T02:25:38.051Z,14.30
2023-10-02T02:28:07.539Z,13.93
2023-10-02T02:30:41.697Z,11.47
2023-10-02T02:33:13.586Z,12.70
2023-10-02T02:35:40.476Z,14.10
2023-10-02T02:38:15.409Z,14.93
2023-10-02T02:40:42.581Z,12.30
2023-10-02T02:43:20.394Z,15.67
2023-10-02T02:45:47.397Z,13.53
2023-10-02T02:48:17.205Z,12.07
2023-10-02T02:50:44.973Z,15.37
2023-10-02T02:53:31.720Z,12.10
2023-10-02T02:56:19.010Z,11.37
2023-10-02T02:58:46.991Z,12.03
2023-10-02T03:01:17.799Z,13.40
2023-10-02T03:03:45.544Z,14.53
2023-10-02T03:06:23.731Z,9.67
2023-10-02T03:08:54.916Z,11.63
2023-10-02T03:11:24.509Z,12.37
2023-10-02T03:13:51.886Z,12.37
2023-10-02T03:16:30.159Z,11.23
2023-10-02T03:18:57.309Z,11.27
2023-10-02T03:21:25.683Z,12.57
2023-10-02T03:24:02.296Z,10.60
2023-10-02T03:26:35.717Z,11.20
2023-10-02T03:29:17.996Z,11.67
2023-10-02T03:31:51.611Z,10.47
2023-10-02T03:34:29.702Z,11.43
2023-10-02T03:37:10.570Z,11.27
2023-10-02T03:40:13.729Z,10.93
2023-10-02T03:42:40.804Z,10.63
2023-10-02T03:45:10.093Z,9.50
2023-10-02T03:47:37.482Z,12.30
2023-10-02T03:50:08.290Z,12.47
2023-10-02T03:52:36.083Z,12.33
2023-10-02T03:55:17.078Z,10.40
2023-10-02T03:57:54.142Z,11.20
2023-10-02T04:00:29.204Z,10.50
2023-10-02T04:02:58.664Z,10.47
2023-10-02T04:05:44.093Z,11.30
2023-10-02T04:08:23.249Z,10.10
2023-10-02T04:10:57.025Z,11.17
2023-10-02T04:13:28.048Z,12.77
2023-10-02T04:15:55.287Z,11.50
2023-10-02T04:18:41.534Z,15.00
2023-10-02T04:21:13.386Z,12.37
2023-10-02T04:23:44.014Z,12.60
2023-10-02T04:26:21.722Z,12.30
2023-10-02T04:28:56.667Z,11.40
2023-10-02T04:31:35.841Z,11.40
2023-10-02T04:34:18.052Z,13.40
2023-10-02T04:36:45.354Z,11.50
2023-10-02T04:39:33.794Z,14.43
2023-10-02T04:42:16.661Z,14.53
2023-10-02T04:45:00.118Z,12.20
2023-10-02T04:47:29.142Z,15.33
2023-10-02T04:50:06.525Z,16.00
2023-10-02T04:52:57.994Z,14.20
2023-10-02T04:55:44.786Z,11.80
2023-10-02T04:58:20.017Z,12.90
2023-10-02T05:01:05.159Z,16.30
2023-10-02T05:03:51.224Z,11.87
2023-10-02T05:06:18.880Z,17.00
2023-10-02T05:08:51.765Z,13.90
2023-10-02T05:11:28.146Z,13.03
2023-10-02T05:13:58.543Z,12.90
2023-10-02T05:16:35.810Z,13.13
2023-10-02T05:19:06.772Z,15.00
2023-10-02T05:21:37.550Z,12.93
2023-10-02T05:24:08.732Z,16.90
2023-10-02T05:26:37.357Z,16.30
2023-10-02T05:29:09.755Z,14.30
2023-10-02T05:31:41.989Z,14.63
2023-10-02T05:34:23.641Z,13.87
2023-10-02T05:37:08.647Z,12.50
2023-10-02T05:39:41.042Z,13.40
2023-10-02T05:42:14.476Z,14.33
2023-10-02T05:44:45.457Z,12.57
2023-10-02T05:47:18.566Z,14.67
2023-10-02T05:49:50.146Z,13.10
2023-10-02T05:52:20.061Z,15.53
2023-10-02T05:54:56.458Z,15.10
2023-10-02T05:57:33.327Z,13.30
2023-10-02T06:00:01.826Z,15.40
2023-10-02T06:02:29.475Z,13.70
2023-10-02T06:05:08.742Z,14.10
2023-10-02T06:07:44.646Z,11.60
2023-10-02T06:10:27.377Z,16.07
2023-10-02T06:13:09.862Z,12.63
2023-10-02T06:15:50.346Z,15.00
2023-10-02T06:18:25.821Z,13.30
2023-10-02T06:21:02.899Z,15.27
2023-10-02T06:23:38.979Z,12.33
2023-10-02T06:26:11.307Z,16.73
2023-10-02T06:28:39.160Z,16.83
2023-10-02T06:31:07.707Z,13.50
2023-10-02T06:33:38.724Z,14.33
2023-10-02T06:36:09.987Z,12.97
2023-10-02T06:38:37.230Z,13.93
2023-10-02T06:41:14.237Z,13.37
2023-10-02T06:43:41.747Z,11.60
2023-10-02T06:46:15.453Z,15.73
2023-10-02T06:48:46.910Z,16.43
2023-10-02T06:51:17.439Z,14.20
2023-10-02T06:53:44.718Z,16.83
2023-10-02T06:56:13.805Z,13.53
2023-10-02T06:59:04.463Z,13.00
2023-10-02T07:01:32.124Z,14.07
2023-10-02T07:04:10.247Z,15.47
2023-10-02T07:06:40.642Z,14.83
2023-10-02T07:09:11.728Z,14.07
2023-10-02T07:11:40.416Z,12.70
2023-10-02T07:14:07.887Z,16.20
2023-10-02T07:16:35.279Z,15.90
2023-10-02T07:19:02.876Z,14.40
2023-10-02T07:21:32.258Z,13.50
2023-10-02T07:24:03.721Z,12.63
2023-10-02T07:26:49.545Z,13.07
2023-10-02T07:29:18.873Z,13.27
2023-10-02T07:31:47.498Z,14.23
2023-10-02T07:34:17.160Z,12.70
2023-10-02T07:36:47.172Z,14.20
2023-10-02T07:39:34.232Z,11.10
2023-10-02T07:42:01.869Z,12.87
2023-10-02T07:44:38.453Z,12.50
2023-10-02T07:47:11.755Z,11.97
2023-10-02T07:49:41.900Z,14.50
2023-10-02T07:52:09.289Z,12.20
2023-10-02T07:54:45.839Z,14.73
2023-10-02T07:57:14.371Z,12.73
2023-10-02T07:59:45.198Z,13.43
2023-10-02T08:02:38.701Z,14.57
2023-10-02T08:05:06.025Z,11.53
2023-10-02T08:07:44.564Z,12.83
2023-10-02T08:10:14.516Z,11.67
2023-10-02T08:12:56.416Z,13.13
2023-10-02T08:15:33.925Z,12.27
2023-10-02T08:18:05.434Z,13.17
2023-10-02T08:20:39.218Z,13.50
2023-10-02T08:23:25.501Z,13.70
2023-10-02T08:26:24.979Z,12.67
2023-10-02T08:28:54.086Z,14.00
2023-10-02T08:31:21.400Z,13.23
2023-10-02T08:34:02.101Z,13.47
2023-10-02T08:36:30.610Z,17.00
2023-10-02T08:39:13.694Z,15.37
2023-10-02T08:41:45.061Z,15.33
2023-10-02T08:44:14.011Z,15.73
2023-10-02T08:46:49.215Z,12.57
2023-10-02T08:49:17.784Z,14.00
2023-10-02T08:51:50.059Z,11.47
2023-10-02T08:54:19.455Z,13.23
2023-10-02T08:56:49.499Z,15.87
2023-10-02T08:59:18.182Z,13.90
2023-10-02T09:01:49.403Z,12.40
2023-10-02T09:04:44.708Z,13.50
2023-10-02T09:07:26.113Z,12.63
2023-10-02T09:10:25.771Z,14.63
2023-10-02T09:13:15.633Z,16.53
2023-10-02T09:15:48.175Z,13.73
2023-10-02T09:18:36.871Z,17.13
2023-10-02T09:21:17.173Z,13.40
2023-10-02T09:23:54.486Z,12.70
2023-10-02T09:26:25.810Z,16.53
2023-10-02T09:29:01.476Z,13.00
2023-10-02T09:31:31.925Z,15.57
2023-10-02T09:34:18.516Z,16.50
2023-10-02T09:37:44.449Z,12.73
2023-10-02T09:39:51.843Z,16.60
2023-10-02T09:42:20.732Z,13.37
2023-10-02T09:44:51.824Z,12.63
2023-10-02T09:47:27.163Z,14.30
2023-10-02T09:50:25.231Z,13.87
2023-10-02T09:53:16.031Z,15.60
2023-10-02T09:55:42.862Z,17.57
2023-10-02T09:58:29.574Z,15.07
2023-10-02T10:01:32.096Z,16.37
2023-10-02T10:03:59.183Z,15.73
2023-10-02T10:06:29.554Z,12.83
2023-10-02T10:09:14.980Z,16.80
2023-10-02T10:12:14.198Z,14.43
2023-10-02T10:14:44.076Z,13.40
2023-10-02T10:17:23.225Z,13.27
2023-10-02T10:20:09.032Z,13.13
2023-10-02T10:22:52.010Z,13.37
2023-10-02T10:25:21.731Z,15.00
2023-10-02T10:27:55.814Z,15.97
2023-10-02T10:30:26.173Z,14.93
2023-10-02T10:33:12.153Z,15.27
2023-10-02T10:35:50.779Z,15.17
2023-10-02T10:38:35.644Z,14.70
2023-10-02T10:41:16.068Z,14.67
2023-10-02T10:43:53.166Z,15.30
2023-10-02T10:46:21.047Z,17.10
2023-10-02T10:49:16.029Z,15.70
2023-10-02T10:51:43.926Z,13.13
2023-10-02T10:54:27.998Z,15.07
2023-10-02T10:56:59.564Z,17.97
2023-10-02T10:59:33.677Z,17.73
2023-10-02T11:02:13.939Z,18.80
2023-10-02T11:04:48.538Z,22.80
2023-10-02T11:07:26.487Z,18.43
2023-10-02T11:10:16.111Z,19.40
2023-10-02T11:12:57.355Z,18.93
2023-10-02T11:15:44.108Z,19.23
2023-10-02T11:18:19.983Z,22.70
2023-10-02T11:21:22.930Z,21.20
2023-10-02T11:23:50.127Z,26.57
2023-10-02T11:26:23.229Z,18.27
2023-10-02T11:28:54.425Z,20.30
2023-10-02T11:31:32.061Z,18.57
2023-10-02T11:34:29.614Z,21.13
2023-10-02T11:36:55.266Z,18.10
2023-10-02T11:39:28.022Z,19.37
2023-10-02T11:41:55.512Z,21.87
2023-10-02T11:44:22.632Z,18.87
2023-10-02T11:46:50.001Z,20.10
2023-10-02T11:49:17.238Z,19.30
2023-10-02T11:51:46.402Z,18.70
2023-10-02T11:54:15.374Z,20.40
2023-10-02T11:56:44.483Z,22.10
2023-10-02T11:59:15.782Z,23.43
2023-10-02T12:01:46.306Z,19.03
2023-10-02T12:04:13.175Z,24.30
2023-10-02T12:06:40.226Z,20.30
2023-10-02T12:09:07.131Z,22.23
2023-10-02T12:11:36.761Z,21.83
2023-10-02T12:14:06.602Z,24.03
2023-10-02T12:16:33.416Z,24.37
2023-10-02T12:19:00.393Z,24.53
2023-10-02T12:21:27.324Z,25.13
2023-10-02T12:23:54.132Z,24.43
2023-10-02T12:26:28.507Z,23.60
2023-10-02T12:28:56.511Z,24.43
2023-10-02T12:31:24.512Z,20.80
2023-10-02T12:33:54.192Z,23.57
2023-10-02T12:36:23.431Z,19.47
2023-10-02T12:38:51.396Z,21.90
2023-10-02T12:41:22.690Z,22.87
2023-10-02T12:43:57.154Z,21.80
2023-10-02T12:46:28.482Z,22.63
2023-10-02T12:48:58.437Z,23.00
2023-10-02T12:51:26.224Z,21.50
2023-10-02T12:53:53.138Z,24.27
2023-10-02T12:56:24.474Z,24.77
2023-10-02T12:58:53.058Z,23.87
2023-10-02T13:01:21.429Z,23.60
2023-10-02T13:03:48.343Z,20.20
2023-10-02T13:06:16.417Z,23.33
2023-10-02T13:08:45.081Z,20.30
2023-10-02T13:11:19.872Z,22.47
2023-10-02T13:13:48.642Z,23.80
2023-10-02T13:16:15.930Z,22.20
2023-10-02T13:18:45.043Z,23.50
2023-10-02T13:21:15.300Z,24.47
2023-10-02T13:23:42.547Z,21.30
2023-10-02T13:26:09.632Z,24.33
2023-10-02T13:28:36.492Z,23.83
2023-10-02T13:31:15.517Z,25.50
2023-10-02T13:33:47.838Z,25.70
2023-10-02T13:36:15.555Z,23.43
2023-10-02T13:38:42.636Z,22.20
2023-10-02T13:41:13.536Z,24.00
2023-10-02T13:43:45.915Z,22.33
2023-10-02T13:46:16.054Z,24.90
2023-10-02T13:48:46.557Z,23.77
2023-10-02T13:51:14.707Z,23.60
2023-10-02T13:53:41.861Z,27.07
2023-10-02T13:56:10.999Z,24.83
2023-10-02T13:58:41.891Z,27.10
2023-10-02T14:01:09.513Z,25.70
2023-10-02T14:03:37.603Z,23.93
2023-10-02T14:06:09.166Z,25.80
2023-10-02T14:08:36.816Z,26.70
2023-10-02T14:11:04.312Z,23.50
2023-10-02T14:13:32.675Z,25.37
2023-10-02T14:16:10.518Z,26.83
2023-10-02T14:18:38.782Z,26.07
2023-10-02T14:21:08.300Z,26.73
2023-10-02T14:23:36.215Z,25.07
2023-10-02T14:26:07.887Z,26.50
2023-10-02T14:28:35.981Z,25.07
2023-10-02T14:31:02.920Z,26.30
2023-10-02T14:33:29.903Z,22.43
2023-10-02T14:35:57.463Z,23.23
2023-10-02T14:38:25.412Z,20.43
2023-10-02T14:40:53.667Z,23.50
2023-10-02T14:43:21.837Z,21.70
2023-10-02T14:45:49.133Z,21.87
2023-10-02T14:48:41.918Z,22.53
2023-10-02T14:51:09.860Z,24.00
2023-10-02T14:53:36.791Z,21.10
2023-10-02T14:56:04.852Z,21.90
2023-10-02T14:58:33.432Z,21.27
2023-10-02T15:01:05.242Z,22.47
2023-10-02T15:03:33.824Z,21.43
2023-10-02T15:06:02.267Z,18.93
2023-10-02T15:08:34.950Z,24.40
2023-10-02T15:11:05.997Z,20.50
2023-10-02T15:13:34.823Z,19.20
2023-10-02T15:16:02.132Z,20.83
2023-10-02T15:18:29.110Z,20.77
2023-10-02T15:20:56.718Z,17.83
2023-10-02T15:23:24.022Z,18.83
2023-10-02T15:25:54.663Z,22.50
2023-10-02T15:28:23.351Z,19.57
2023-10-02T15:30:50.782Z,23.07
2023-10-02T15:33:17.783Z,20.83
2023-10-02T15:35:45.003Z,26.60
2023-10-02T15:38:12.990Z,23.27
2023-10-02T15:40:42.168Z,67.80
2023-10-02T15:43:09.868Z,41.10
2023-10-02T15:45:37.483Z,43.87
2023-10-02T15:48:04.822Z,30.00
2023-10-02T15:50:35.382Z,29.33
2023-10-02T15:53:03.009Z,26.17
2023-10-02T15:55:30.460Z,50.40
2023-10-02T15:57:57.701Z,37.17
2023-10-02T16:00:27.137Z,24.60
2023-10-02T16:02:56.468Z,25.93
2023-10-02T16:05:24.161Z,21.43
2023-10-02T16:07:52.721Z,30.23
2023-10-02T16:10:21.877Z,25.27
2023-10-02T16:12:51.335Z,22.60
2023-10-02T16:15:24.581Z,22.80
2023-10-02T16:17:53.550Z,23.93
2023-10-02T16:20:20.788Z,25.10
2023-10-02T16:22:49.915Z,24.23
2023-10-02T16:25:20.287Z,26.50
2023-10-02T16:27:49.874Z,21.03
2023-10-02T16:30:21.308Z,25.73
2023-10-02T16:32:49.584Z,28.50
2023-10-02T16:35:20.938Z,27.73
2023-10-02T16:37:49.427Z,25.10
2023-10-02T16:40:19.750Z,28.20
2023-10-02T16:42:46.823Z,24.67
2023-10-02T16:45:17.250Z,28.73
2023-10-02T16:47:45.538Z,28.80
2023-10-02T16:50:14.856Z,31.37
2023-10-02T16:52:46.770Z,24.63
2023-10-02T16:55:17.005Z,31.50
2023-10-02T16:57:45.981Z,26.80
2023-10-02T17:00:14.356Z,29.77
2023-10-02T17:02:42.764Z,27.13
2023-10-02T17:05:14.892Z,33.90
2023-10-02T17:07:43.129Z,33.73
2023-10-02T17:10:14.626Z,33.80
2023-10-02T17:12:45.939Z,33.30
2023-10-02T17:15:17.631Z,31.47
2023-10-02T17:17:47.693Z,33.77
2023-10-02T17:20:17.422Z,33.47
2023-10-02T17:22:48.772Z,32.13
2023-10-02T17:25:19.441Z,37.67
2023-10-02T17:27:46.321Z,36.30
2023-10-02T17:30:15.197Z,32.40
2023-10-02T17:32:43.613Z,33.97
2023-10-02T17:35:11.208Z,30.67
2023-10-02T17:37:40.969Z,31.63
2023-10-02T17:40:11.894Z,35.80
2023-10-02T17:42:40.141Z,31.50
2023-10-02T17:45:08.762Z,35.90
2023-10-02T17:47:43.564Z,36.00
2023-10-02T17:50:12.246Z,43.00
2023-10-02T17:52:43.097Z,38.80
2023-10-02T17:55:10.930Z,38.03
2023-10-02T17:57:38.174Z,34.33
2023-10-02T18:00:05.963Z,34.00
2023-10-02T18:02:36.516Z,34.33
2023-10-02T18:05:04.737Z,31.50
2023-10-02T18:07:32.379Z,29.80
2023-10-02T18:09:59.309Z,37.93
2023-10-02T18:12:26.293Z,32.40
2023-10-02T18:14:53.336Z,33.50
2023-10-02T18:17:20.490Z,32.37
2023-10-02T18:19:48.290Z,39.10
2023-10-02T18:22:16.107Z,33.90
2023-10-02T18:24:43.763Z,29.37
2023-10-02T18:27:11.644Z,31.07
2023-10-02T18:29:38.714Z,33.07
2023-10-02T18:32:05.638Z,29.30
2023-10-02T18:34:42.924Z,28.70
2023-10-02T18:37:12.406Z,32.43
2023-10-02T18:39:39.490Z,28.27
2023-10-02T18:42:06.561Z,35.10
2023-10-02T18:44:38.099Z,29.70
2023-10-02T18:47:05.676Z,29.37
2023-10-02T18:49:36.587Z,33.60
2023-10-02T18:52:04.797Z,32.57
2023-10-02T18:54:32.768Z,32.83
2023-10-02T18:57:03.834Z,33.67
2023-10-02T18:59:30.812Z,30.80
2023-10-02T19:01:57.567Z,30.43
2023-10-02T19:04:24.510Z,33.50
2023-10-02T19:06:51.391Z,32.90
2023-10-02T19:09:23.714Z,36.40
2023-10-02T19:11:50.692Z,33.00
2023-10-02T19:14:18.716Z,29.63
2023-10-02T19:16:45.764Z,33.30
2023-10-02T19:19:12.652Z,34.10
2023-10-02T19:21:39.531Z,27.40
2023-10-02T19:24:06.634Z,32.30
2023-10-02T19:26:35.507Z,31.80
2023-10-02T19:29:04.399Z,32.67
2023-10-02T19:31:31.876Z,29.40
2023-10-02T19:33:59.304Z,31.20
2023-10-02T19:36:26.354Z,30.80
2023-10-02T19:38:53.537Z,34.40
2023-10-02T19:41:21.134Z,31.67
2023-10-02T19:43:53.810Z,38.47
2023-10-02T19:46:21.020Z,34.33
2023-10-02T19:48:49.718Z,36.63
2023-10-02T19:51:16.899Z,38.63
2023-10-02T19:53:44.672Z,35.10
2023-10-02T19:56:14.596Z,34.60
2023-10-02T19:58:42.312Z,35.53
2023-10-02T20:01:09.493Z,37.50
2023-10-02T20:03:36.629Z,38.47
2023-10-02T20:06:11.435Z,34.60
2023-10-02T20:08:39.594Z,35.97
2023-10-02T20:11:07.053Z,39.30
2023-10-02T20:13:35.275Z,36.57
2023-10-02T20:16:02.509Z,37.47
2023-10-02T20:18:31.119Z,37.13
2023-10-02T20:20:59.140Z,38.20
2023-10-02T20:23:41.326Z,36.23
2023-10-02T20:26:12.858Z,37.93
2023-10-02T20:28:39.966Z,40.57
2023-10-02T20:31:14.503Z,38.30
2023-10-02T20:33:44.688Z,37.07
2023-10-02T20:36:13.166Z,35.33
2023-10-02T20:38:41.542Z,37.13
2023-10-02T20:41:08.713Z,35.37
2023-10-02T20:43:35.918Z,40.63
2023-10-02T20:46:03.044Z,39.63
2023-10-02T20:48:30.161Z,38.73
2023-10-02T20:51:00.526Z,42.63
2023-10-02T20:53:27.517Z,39.90
2023-10-02T20:55:55.014Z,43.63
2023-10-02T20:58:21.757Z,39.73
2023-10-02T21:00:48.971Z,42.23
2023-10-02T21:03:16.803Z,39.67
2023-10-02T21:05:44.786Z,40.37
2023-10-02T21:08:14.316Z,39.57
2023-10-02T21:10:41.504Z,39.17
2023-10-02T21:13:09.165Z,43.13
2023-10-02T21:15:36.523Z,40.70
2023-10-02T21:18:04.850Z,42.40
2023-10-02T21:20:31.680Z,44.50
2023-10-02T21:22:58.425Z,46.53
2023-10-02T21:25:25.352Z,41.60
2023-10-02T21:27:52.298Z,39.00
2023-10-02T21:30:20.302Z,42.83
2023-10-02T21:32:47.184Z,41.77
2023-10-02T21:35:13.990Z,43.33
2023-10-02T21:37:40.805Z,41.77
2023-10-02T21:40:08.630Z,43.93
2023-10-02T21:42:35.975Z,41.27
2023-10-02T21:45:05.550Z,41.73
2023-10-02T21:47:32.906Z,45.63
2023-10-02T21:50:00.109Z,50.10
2023-10-02T21:52:26.996Z,42.30
2023-10-02T21:54:55.244Z,40.17
2023-10-02T21:57:23.954Z,42.50
2023-10-02T21:59:51.746Z,42.03
2023-10-02T22:02:19.769Z,40.40
2023-10-02T22:04:47.400Z,38.67
2023-10-02T22:07:14.494Z,43.70
2023-10-02T22:09:41.558Z,39.40
2023-10-02T22:12:08.975Z,41.83
2023-10-02T22:14:36.535Z,45.70
2023-10-02T22:17:09.059Z,39.07
2023-10-02T22:19:38.339Z,39.23
2023-10-02T22:22:07.193Z,35.47
2023-10-02T22:24:34.997Z,42.87
2023-10-02T22:27:02.619Z,41.00
2023-10-02T22:29:31.552Z,36.83
2023-10-02T22:32:00.551Z,37.13
2023-10-02T22:34:41.822Z,35.30
2023-10-02T22:37:14.384Z,37.97
2023-10-02T22:39:41.716Z,35.43
2023-10-02T22:42:08.670Z,36.03
2023-10-02T22:44:35.644Z,38.53
2023-10-02T22:47:03.713Z,36.40
2023-10-02T22:49:31.884Z,35.17
2023-10-02T22:52:00.617Z,36.07
2023-10-02T22:54:29.807Z,37.67
2023-10-02T22:57:00.341Z,36.07
2023-10-02T22:59:27.513Z,37.37
2023-10-02T23:01:55.421Z,37.47
2023-10-02T23:04:22.382Z,37.47
2023-10-02T23:06:50.558Z,38.33
2023-10-02T23:09:18.156Z,34.20
2023-10-02T23:11:45.396Z,39.87
2023-10-02T23:14:12.372Z,33.90
2023-10-02T23:16:39.299Z,32.17
2023-10-02T23:19:07.420Z,34.10
2023-10-02T23:21:35.058Z,40.40
2023-10-02T23:24:02.053Z,35.00
2023-10-02T23:26:30.000Z,35.73
2023-10-02T23:28:57.056Z,34.60
2023-10-02T23:31:25.306Z,34.00
2023-10-02T23:33:52.262Z,30.43
2023-10-02T23:36:19.049Z,37.07
2023-10-02T23:38:46.025Z,32.40
2023-10-02T23:41:14.397Z,33.47
2023-10-02T23:43:42.044Z,37.07
2023-10-02T23:46:12.317Z,32.50
2023-10-02T23:48:40.533Z,33.20
2023-10-02T23:51:13.550Z,33.13
2023-10-02T23:53:45.232Z,34.63
2023-10-02T23:56:15.210Z,34.70
2023-10-02T23:58:43.061Z,33.57
